Time,TemperatureF,DewpointF,PressureIn,WindDirection,WindDirectionDegrees,WindSpeedMPH,WindSpeedGustMPH,Humidity,HourlyPrecipIn,Conditions,Clouds,dailyrainin,SoftwareType,DateUTC
2013-02-11 00:13:00,34.7,23.4,30.02,NNE,22,0.0,-999.0,63,-99.99,,,0.00,Acu-Link.com,2013-02-11 05:13:00,
2013-02-11 00:28:00,34.5,23.2,30.02,ESE,112,0.0,-999.0,63,-99.99,,,0.00,Acu-Link.com,2013-02-11 05:28:00,
2013-02-11 00:43:00,34.9,24.3,30.04,NNE,22,1.7,-999.0,65,-99.99,,,0.00,Acu-Link.com,2013-02-11 05:43:00,
2013-02-11 00:58:00,34.5,25.0,30.03,NE,45,0.0,-999.0,68,-99.99,,,0.00,Acu-Link.com,2013-02-11 05:58:00,
2013-02-11 01:13:00,34.5,25.0,30.03,North,0,2.2,-999.0,68,-99.99,,,0.00,Acu-Link.com,2013-02-11 06:13:00,
2013-02-11 01:29:00,34.5,24.7,30.02,NNE,22,0.0,-999.0,67,-99.99,,,0.00,Acu-Link.com,2013-02-11 06:29:00,
2013-02-11 01:44:00,34.7,24.9,30.00,NE,45,2.2,-999.0,67,-99.99,,,0.00,Acu-Link.com,2013-02-11 06:44:00,
2013-02-11 01:59:00,35.1,24.9,29.99,ENE,67,2.2,-999.0,66,-99.99,,,0.00,Acu-Link.com,2013-02-11 06:59:00,
2013-02-11 02:14:00,35.1,24.9,29.98,NE,45,2.7,-999.0,66,-99.99,,,0.00,Acu-Link.com,2013-02-11 07:14:00,
2013-02-11 02:29:00,35.4,24.5,29.97,WSW,247,0.0,-999.0,64,-99.99,,,0.00,Acu-Link.com,2013-02-11 07:29:00,
2013-02-11 02:44:00,35.4,24.5,29.96,WNW,292,2.7,-999.0,64,-99.99,,,0.00,Acu-Link.com,2013-02-11 07:44:00,
2013-02-11 03:00:00,35.2,24.6,29.96,South,180,0.0,-999.0,65,-99.99,,,0.00,Acu-Link.com,2013-02-11 08:00:00,
2013-02-11 03:15:00,35.4,24.5,29.94,ENE,67,1.1,-999.0,64,-99.99,,,0.00,Acu-Link.com,2013-02-11 08:15:00,
2013-02-11 03:30:00,35.6,25.4,29.94,NNE,22,0.0,-999.0,66,-99.99,,,0.00,Acu-Link.com,2013-02-11 08:30:00,
2013-02-11 03:45:00,35.8,25.6,29.93,South,180,1.1,-999.0,66,-99.99,,,0.00,Acu-Link.com,2013-02-11 08:45:00,
2013-02-11 04:00:00,36.3,26.0,29.91,ESE,112,2.7,-999.0,66,-99.99,,,0.00,Acu-Link.com,2013-02-11 09:00:00,
2013-02-11 04:16:00,36.1,25.9,29.92,ESE,112,0.0,-999.0,66,-99.99,,,0.00,Acu-Link.com,2013-02-11 09:16:00,
2013-02-11 04:32:00,35.6,27.8,29.92,NNE,22,1.7,-999.0,73,-99.99,,,0.00,Acu-Link.com,2013-02-11 09:32:00,
2013-02-11 04:47:00,34.9,29.1,29.91,SE,135,5.3,-999.0,79,-99.99,,,0.00,Acu-Link.com,2013-02-11 09:47:00,
2013-02-11 05:02:00,34.3,29.7,29.91,ESE,112,0.0,-999.0,83,-99.99,,,0.00,Acu-Link.com,2013-02-11 10:02:00,
2013-02-11 05:17:00,33.8,29.5,29.91,ESE,112,0.0,-999.0,84,-99.99,,,0.00,Acu-Link.com,2013-02-11 10:17:00,
2013-02-11 05:32:00,33.4,31.3,29.89,SE,135,0.0,-999.0,92,-99.99,,,0.00,Acu-Link.com,2013-02-11 10:32:00,
2013-02-11 05:48:00,32.7,31.9,29.88,East,90,1.1,-999.0,97,-99.99,,,0.01,Acu-Link.com,2013-02-11 10:48:00,
2013-02-11 06:03:00,32.5,32.0,29.88,ENE,67,2.7,-999.0,98,-99.99,,,0.01,Acu-Link.com,2013-02-11 11:03:00,
2013-02-11 06:18:00,32.2,31.7,29.87,NNE,22,1.7,-999.0,98,-99.99,,,0.01,Acu-Link.com,2013-02-11 11:18:00,
2013-02-11 06:33:00,32.2,31.7,29.87,NNE,22,1.7,-999.0,98,-99.99,,,0.02,Acu-Link.com,2013-02-11 11:33:00,
2013-02-11 06:48:00,32.2,31.7,29.86,South,180,0.0,-999.0,98,-99.99,,,0.03,Acu-Link.com,2013-02-11 11:48:00,
2013-02-11 07:03:00,32.2,31.7,29.85,NNE,22,0.0,-999.0,98,-99.99,,,0.03,Acu-Link.com,2013-02-11 12:03:00,
2013-02-11 07:18:00,32.2,31.7,29.85,NE,45,0.0,-999.0,98,-99.99,,,0.03,Acu-Link.com,2013-02-11 12:18:00,
2013-02-11 07:33:00,32.4,31.9,29.84,NNE,22,0.0,-999.0,98,-99.99,,,0.03,Acu-Link.com,2013-02-11 12:33:00,
2013-02-11 07:48:00,32.7,32.2,29.84,NNE,22,0.0,-999.0,98,-99.99,,,0.03,Acu-Link.com,2013-02-11 12:48:00,
2013-02-11 08:04:00,32.9,32.4,29.83,NNE,22,0.0,-999.0,98,-99.99,,,0.03,Acu-Link.com,2013-02-11 13:04:00,
2013-02-11 08:19:00,33.1,32.6,29.82,SSE,157,0.0,-999.0,98,-99.99,,,0.03,Acu-Link.com,2013-02-11 13:19:00,
2013-02-11 08:34:00,33.3,32.8,29.81,ESE,112,1.1,-999.0,98,-99.99,,,0.03,Acu-Link.com,2013-02-11 13:34:00,
2013-02-11 08:49:00,33.8,33.3,29.81,NNE,22,2.2,-999.0,98,-99.99,,,0.03,Acu-Link.com,2013-02-11 13:49:00,
2013-02-11 09:04:00,34.5,34.0,29.79,North,0,0.0,-999.0,98,-99.99,,,0.03,Acu-Link.com,2013-02-11 14:04:00,
2013-02-11 09:19:00,35.2,34.7,29.78,NNE,22,1.7,-999.0,98,-99.99,,,0.03,Acu-Link.com,2013-02-11 14:19:00,
2013-02-11 09:34:00,35.8,35.3,29.78,NE,45,2.7,-999.0,98,-99.99,,,0.03,Acu-Link.com,2013-02-11 14:34:00,
2013-02-11 09:49:00,36.7,36.2,29.78,East,90,0.0,-999.0,98,-99.99,,,0.03,Acu-Link.com,2013-02-11 14:49:00,
2013-02-11 10:04:00,37.2,36.7,29.77,NNE,22,0.0,-999.0,98,-99.99,,,0.03,Acu-Link.com,2013-02-11 15:04:00,
2013-02-11 10:20:00,37.8,37.3,29.76,NNE,22,0.0,-999.0,98,-99.99,,,0.03,Acu-Link.com,2013-02-11 15:20:00,
2013-02-11 10:35:00,37.9,37.4,29.76,NE,45,2.2,-999.0,98,-99.99,,,0.03,Acu-Link.com,2013-02-11 15:35:00,
2013-02-11 10:50:00,38.7,37.9,29.74,NE,45,2.7,-999.0,97,-99.99,,,0.03,Acu-Link.com,2013-02-11 15:50:00,
2013-02-11 11:05:00,38.8,37.8,29.73,East,90,3.2,-999.0,96,-99.99,,,0.03,Acu-Link.com,2013-02-11 16:05:00,
2013-02-11 11:20:00,39.4,38.6,29.73,ESE,112,1.1,-999.0,97,-99.99,,,0.03,Acu-Link.com,2013-02-11 16:20:00,
2013-02-11 11:35:00,39.7,38.7,29.72,East,90,1.7,-999.0,96,-99.99,,,0.03,Acu-Link.com,2013-02-11 16:35:00,
2013-02-11 11:50:00,40.1,39.1,29.70,NNE,22,3.7,-999.0,96,-99.99,,,0.03,Acu-Link.com,2013-02-11 16:50:00,
2013-02-11 12:05:00,40.1,39.1,29.69,NE,45,1.7,-999.0,96,-99.99,,,0.03,Acu-Link.com,2013-02-11 17:05:00,
2013-02-11 12:20:00,40.5,39.5,29.66,NE,45,3.7,-999.0,96,-99.99,,,0.03,Acu-Link.com,2013-02-11 17:20:00,
2013-02-11 12:36:00,40.5,39.2,29.65,NE,45,3.7,-999.0,95,-99.99,,,0.03,Acu-Link.com,2013-02-11 17:36:00,
2013-02-11 12:51:00,40.6,39.3,29.64,NW,315,1.1,-999.0,95,-99.99,,,0.03,Acu-Link.com,2013-02-11 17:51:00,
2013-02-11 13:06:00,40.8,39.2,29.63,NE,45,2.2,-999.0,94,-99.99,,,0.03,Acu-Link.com,2013-02-11 18:06:00,
2013-02-11 13:21:00,41.0,39.4,29.62,ENE,67,3.7,-999.0,94,-99.99,,,0.03,Acu-Link.com,2013-02-11 18:21:00,
2013-02-11 13:36:00,41.0,39.7,29.62,NNE,22,1.7,-999.0,95,-99.99,,,0.03,Acu-Link.com,2013-02-11 18:36:00,
2013-02-11 13:51:00,41.0,39.7,29.61,NE,45,3.2,-999.0,95,-99.99,,,0.03,Acu-Link.com,2013-02-11 18:51:00,
2013-02-11 14:06:00,41.5,39.9,29.61,NNE,22,2.2,-999.0,94,-99.99,,,0.03,Acu-Link.com,2013-02-11 19:06:00,
2013-02-11 14:21:00,41.2,40.1,29.59,SSE,157,1.7,-999.0,96,-99.99,,,0.03,Acu-Link.com,2013-02-11 19:21:00,
2013-02-11 14:36:00,41.2,40.4,29.58,NNE,22,3.2,-999.0,97,-99.99,,,0.03,Acu-Link.com,2013-02-11 19:36:00,
2013-02-11 14:52:00,41.9,40.8,29.57,NNW,337,2.2,-999.0,96,-99.99,,,0.03,Acu-Link.com,2013-02-11 19:52:00,
2013-02-11 15:07:00,43.3,40.9,29.57,NNE,22,2.2,-999.0,91,-99.99,,,0.03,Acu-Link.com,2013-02-11 20:07:00,
2013-02-11 15:22:00,43.2,40.8,29.57,East,90,2.2,-999.0,91,-99.99,,,0.03,Acu-Link.com,2013-02-11 20:22:00,
2013-02-11 15:37:00,42.1,40.5,29.56,North,0,3.2,-999.0,94,-99.99,,,0.03,Acu-Link.com,2013-02-11 20:37:00,
2013-02-11 15:52:00,41.2,39.9,29.56,NE,45,3.2,-999.0,95,-99.99,,,0.03,Acu-Link.com,2013-02-11 20:52:00,
2013-02-11 16:07:00,40.8,40.0,29.56,ESE,112,1.7,-999.0,97,-99.99,,,0.03,Acu-Link.com,2013-02-11 21:07:00,
2013-02-11 16:22:00,40.5,40.0,29.55,ESE,112,3.2,-999.0,98,-99.99,,,0.03,Acu-Link.com,2013-02-11 21:22:00,
2013-02-11 16:37:00,39.7,39.2,29.54,NNE,22,1.1,-999.0,98,-99.99,,,0.03,Acu-Link.com,2013-02-11 21:37:00,
2013-02-11 16:52:00,39.6,39.1,29.54,NNE,22,3.2,-999.0,98,-99.99,,,0.03,Acu-Link.com,2013-02-11 21:52:00,
2013-02-11 17:08:00,39.2,38.7,29.53,NNE,22,2.2,-999.0,98,-99.99,,,0.03,Acu-Link.com,2013-02-11 22:08:00,
2013-02-11 17:23:00,39.0,38.5,29.53,NNE,22,0.0,-999.0,98,-99.99,,,0.03,Acu-Link.com,2013-02-11 22:23:00,
2013-02-11 17:38:00,38.7,38.2,29.53,NNE,22,1.1,-999.0,98,-99.99,,,0.03,Acu-Link.com,2013-02-11 22:38:00,
2013-02-11 17:53:00,38.3,37.8,29.53,East,90,0.0,-999.0,98,-99.99,,,0.03,Acu-Link.com,2013-02-11 22:53:00,
2013-02-11 18:08:00,37.8,37.3,29.53,NNE,22,0.0,-999.0,98,-99.99,,,0.03,Acu-Link.com,2013-02-11 23:08:00,
2013-02-11 18:23:00,37.8,37.3,29.54,NNW,337,0.0,-999.0,98,-99.99,,,0.03,Acu-Link.com,2013-02-11 23:23:00,
2013-02-11 18:38:00,38.7,38.2,29.58,ESE,112,0.0,-999.0,98,-99.99,,,0.03,Acu-Link.com,2013-02-11 23:38:00,
2013-02-11 18:54:00,38.1,37.6,29.59,WNW,292,2.2,-999.0,98,-99.99,,,0.03,Acu-Link.com,2013-02-11 23:54:00,
2013-02-11 19:09:00,36.9,36.4,29.60,NNW,337,0.0,-999.0,98,-99.99,,,0.03,Acu-Link.com,2013-02-12 00:09:00,
2013-02-11 19:24:00,35.6,35.1,29.60,West,270,1.1,-999.0,98,-99.99,,,0.03,Acu-Link.com,2013-02-12 00:24:00,
2013-02-11 19:39:00,34.7,34.2,29.62,NW,315,0.0,-999.0,98,-99.99,,,0.03,Acu-Link.com,2013-02-12 00:39:00,
2013-02-11 19:54:00,34.3,33.8,29.62,ESE,112,2.2,-999.0,98,-99.99,,,0.03,Acu-Link.com,2013-02-12 00:54:00,
2013-02-11 20:09:00,33.4,32.9,29.62,WSW,247,0.0,-999.0,98,-99.99,,,0.03,Acu-Link.com,2013-02-12 01:09:00,
2013-02-11 20:24:00,32.9,32.4,29.62,NE,45,0.0,-999.0,98,-99.99,,,0.03,Acu-Link.com,2013-02-12 01:24:00,
2013-02-11 20:39:00,33.3,32.8,29.63,West,270,2.7,-999.0,98,-99.99,,,0.03,Acu-Link.com,2013-02-12 01:39:00,
2013-02-11 20:54:00,35.6,35.1,29.63,SW,225,4.7,-999.0,98,-99.99,,,0.03,Acu-Link.com,2013-02-12 01:54:00,
2013-02-11 21:10:00,40.3,32.7,29.64,West,270,8.9,-999.0,74,-99.99,,,0.03,Acu-Link.com,2013-02-12 02:10:00,
2013-02-11 21:25:00,40.8,31.8,29.62,SSW,202,6.3,-999.0,70,-99.99,,,0.03,Acu-Link.com,2013-02-12 02:25:00,
2013-02-11 21:40:00,40.6,31.2,29.63,SSW,202,10.9,-999.0,69,-99.99,,,0.03,Acu-Link.com,2013-02-12 02:40:00,
2013-02-11 21:55:00,40.1,30.4,29.64,NW,315,7.3,-999.0,68,-99.99,,,0.03,Acu-Link.com,2013-02-12 02:55:00,
2013-02-11 22:10:00,39.6,30.3,29.65,West,270,11.4,-999.0,69,-99.99,,,0.03,Acu-Link.com,2013-02-12 03:10:00,
2013-02-11 22:25:00,39.6,29.9,29.64,West,270,4.2,-999.0,68,-99.99,,,0.03,Acu-Link.com,2013-02-12 03:25:00,
2013-02-11 22:40:00,38.8,29.5,29.65,WSW,247,4.7,-999.0,69,-99.99,,,0.03,Acu-Link.com,2013-02-12 03:40:00,
2013-02-11 22:55:00,37.9,29.0,29.65,ESE,112,3.7,-999.0,70,-99.99,,,0.03,Acu-Link.com,2013-02-12 03:55:00,
2013-02-11 23:10:00,37.8,29.3,29.65,WSW,247,5.3,-999.0,71,-99.99,,,0.03,Acu-Link.com,2013-02-12 04:10:00,
2013-02-11 23:26:00,38.7,29.8,29.65,NNE,22,4.2,-999.0,70,-99.99,,,0.03,Acu-Link.com,2013-02-12 04:26:00,
2013-02-11 23:41:00,38.5,29.6,29.64,West,270,6.3,-999.0,70,-99.99,,,0.03,Acu-Link.com,2013-02-12 04:41:00,
2013-02-11 23:56:00,39.4,29.7,29.64,West,270,9.9,-999.0,68,-99.99,,,0.03,Acu-Link.com,2013-02-12 04:56:00,